sensor_id;sensor_type;location;lat;lon;timestamp;temperature;humidity
68719;DHT22;55696;52.138;5.444;2023-07-30T00:01:57;20.20;57.40
68719;DHT22;55696;52.138;5.444;2023-07-30T00:04:24;20.20;57.60
68719;DHT22;55696;52.138;5.444;2023-07-30T00:06:50;20.20;57.80
68719;DHT22;55696;52.138;5.444;2023-07-30T00:09:17;20.00;57.60
68719;DHT22;55696;52.138;5.444;2023-07-30T00:11:44;20.10;57.80
68719;DHT22;55696;52.138;5.444;2023-07-30T00:14:11;19.80;57.80
68719;DHT22;55696;52.138;5.444;2023-07-30T00:16:38;20.00;58.10
68719;DHT22;55696;52.138;5.444;2023-07-30T00:19:04;19.80;58.10
68719;DHT22;55696;52.138;5.444;2023-07-30T00:21:31;19.80;58.20
68719;DHT22;55696;52.138;5.444;2023-07-30T00:24:00;19.70;58.40
68719;DHT22;55696;52.138;5.444;2023-07-30T00:26:26;19.80;58.40
68719;DHT22;55696;52.138;5.444;2023-07-30T00:28:56;19.70;58.50
68719;DHT22;55696;52.138;5.444;2023-07-30T00:31:23;19.80;58.60
68719;DHT22;55696;52.138;5.444;2023-07-30T00:33:49;19.80;58.60
68719;DHT22;55696;52.138;5.444;2023-07-30T00:36:16;19.80;58.70
68719;DHT22;55696;52.138;5.444;2023-07-30T00:38:43;19.80;58.80
68719;DHT22;55696;52.138;5.444;2023-07-30T00:41:10;19.80;58.80
68719;DHT22;55696;52.138;5.444;2023-07-30T00:43:37;19.80;60.00
68719;DHT22;55696;52.138;5.444;2023-07-30T00:46:04;19.50;58.70
68719;DHT22;55696;52.138;5.444;2023-07-30T00:48:31;19.80;58.80
68719;DHT22;55696;52.138;5.444;2023-07-30T00:50:58;19.80;58.90
68719;DHT22;55696;52.138;5.444;2023-07-30T00:53:26;20.30;59.40
68719;DHT22;55696;52.138;5.444;2023-07-30T00:55:54;19.80;59.20
68719;DHT22;55696;52.138;5.444;2023-07-30T00:58:21;19.60;59.10
68719;DHT22;55696;52.138;5.444;2023-07-30T01:00:51;19.80;59.40
68719;DHT22;55696;52.138;5.444;2023-07-30T01:03:18;19.70;59.50
68719;DHT22;55696;52.138;5.444;2023-07-30T01:05:46;19.70;59.60
68719;DHT22;55696;52.138;5.444;2023-07-30T01:08:12;19.70;59.80
68719;DHT22;55696;52.138;5.444;2023-07-30T01:10:42;19.50;59.90
68719;DHT22;55696;52.138;5.444;2023-07-30T01:13:10;19.70;60.20
68719;DHT22;55696;52.138;5.444;2023-07-30T01:15:38;19.30;60.10
68719;DHT22;55696;52.138;5.444;2023-07-30T01:18:06;19.60;60.40
68719;DHT22;55696;52.138;5.444;2023-07-30T01:20:33;19.50;60.60
68719;DHT22;55696;52.138;5.444;2023-07-30T01:23:00;19.60;60.60
68719;DHT22;55696;52.138;5.444;2023-07-30T01:25:30;19.50;60.60
68719;DHT22;55696;52.138;5.444;2023-07-30T01:28:01;19.60;60.90
68719;DHT22;55696;52.138;5.444;2023-07-30T01:30:35;19.50;60.90
68719;DHT22;55696;52.138;5.444;2023-07-30T01:33:05;19.60;61.20
68719;DHT22;55696;52.138;5.444;2023-07-30T01:35:33;19.60;61.10
68719;DHT22;55696;52.138;5.444;2023-07-30T01:38:02;19.60;61.10
68719;DHT22;55696;52.138;5.444;2023-07-30T01:40:32;19.60;61.30
68719;DHT22;55696;52.138;5.444;2023-07-30T01:42:59;19.60;61.50
68719;DHT22;55696;52.138;5.444;2023-07-30T01:45:26;19.50;62.40
68719;DHT22;55696;52.138;5.444;2023-07-30T01:47:53;19.00;61.40
68719;DHT22;55696;52.138;5.444;2023-07-30T01:50:20;19.20;61.60
68719;DHT22;55696;52.138;5.444;2023-07-30T01:52:47;19.50;61.80
68719;DHT22;55696;52.138;5.444;2023-07-30T01:55:14;19.60;61.80
68719;DHT22;55696;52.138;5.444;2023-07-30T01:57:40;19.50;61.70
68719;DHT22;55696;52.138;5.444;2023-07-30T02:00:08;19.50;61.50
68719;DHT22;55696;52.138;5.444;2023-07-30T02:02:35;19.70;61.70
68719;DHT22;55696;52.138;5.444;2023-07-30T02:05:02;19.70;61.70
68719;DHT22;55696;52.138;5.444;2023-07-30T02:07:29;19.70;61.80
68719;DHT22;55696;52.138;5.444;2023-07-30T02:09:56;19.60;61.90
68719;DHT22;55696;52.138;5.444;2023-07-30T02:12:23;19.60;62.00
68719;DHT22;55696;52.138;5.444;2023-07-30T02:14:51;19.70;62.00
68719;DHT22;55696;52.138;5.444;2023-07-30T02:17:18;19.60;62.00
68719;DHT22;55696;52.138;5.444;2023-07-30T02:19:45;19.70;62.20
68719;DHT22;55696;52.138;5.444;2023-07-30T02:22:12;19.70;62.40
68719;DHT22;55696;52.138;5.444;2023-07-30T02:24:39;19.70;62.30
68719;DHT22;55696;52.138;5.444;2023-07-30T02:27:06;19.70;62.40
68719;DHT22;55696;52.138;5.444;2023-07-30T02:29:33;19.70;62.50
68719;DHT22;55696;52.138;5.444;2023-07-30T02:31:59;19.70;62.60
68719;DHT22;55696;52.138;5.444;2023-07-30T02:34:26;19.60;62.60
68719;DHT22;55696;52.138;5.444;2023-07-30T02:36:53;19.60;62.60
68719;DHT22;55696;52.138;5.444;2023-07-30T02:39:20;19.60;62.70
68719;DHT22;55696;52.138;5.444;2023-07-30T02:41:47;19.70;62.80
68719;DHT22;55696;52.138;5.444;2023-07-30T02:44:14;19.60;62.80
68719;DHT22;55696;52.138;5.444;2023-07-30T02:46:41;19.70;63.00
68719;DHT22;55696;52.138;5.444;2023-07-30T02:49:07;19.50;63.00
68719;DHT22;55696;52.138;5.444;2023-07-30T02:51:35;19.60;63.30
68719;DHT22;55696;52.138;5.444;2023-07-30T02:54:07;19.60;63.40
68719;DHT22;55696;52.138;5.444;2023-07-30T02:56:34;19.50;63.80
68719;DHT22;55696;52.138;5.444;2023-07-30T02:59:01;19.50;63.50
68719;DHT22;55696;52.138;5.444;2023-07-30T03:01:28;19.50;63.80
68719;DHT22;55696;52.138;5.444;2023-07-30T03:03:55;19.40;63.90
68719;DHT22;55696;52.138;5.444;2023-07-30T03:06:22;19.40;64.10
68719;DHT22;55696;52.138;5.444;2023-07-30T03:08:48;19.30;64.20
68719;DHT22;55696;52.138;5.444;2023-07-30T03:11:15;19.40;64.50
68719;DHT22;55696;52.138;5.444;2023-07-30T03:13:42;19.30;64.70
68719;DHT22;55696;52.138;5.444;2023-07-30T03:16:09;19.20;64.80
68719;DHT22;55696;52.138;5.444;2023-07-30T03:18:36;19.30;64.90
68719;DHT22;55696;52.138;5.444;2023-07-30T03:21:03;19.30;65.00
68719;DHT22;55696;52.138;5.444;2023-07-30T03:23:30;19.10;65.00
68719;DHT22;55696;52.138;5.444;2023-07-30T03:25:59;19.20;65.10
68719;DHT22;55696;52.138;5.444;2023-07-30T03:28:26;19.20;65.20
68719;DHT22;55696;52.138;5.444;2023-07-30T03:30:53;19.20;65.20
68719;DHT22;55696;52.138;5.444;2023-07-30T03:33:20;19.10;65.10
68719;DHT22;55696;52.138;5.444;2023-07-30T03:35:50;20.00;65.70
68719;DHT22;55696;52.138;5.444;2023-07-30T03:38:16;19.30;65.50
68719;DHT22;55696;52.138;5.444;2023-07-30T03:40:43;19.20;65.60
68719;DHT22;55696;52.138;5.444;2023-07-30T03:43:10;19.20;65.70
68719;DHT22;55696;52.138;5.444;2023-07-30T03:45:37;19.20;65.70
68719;DHT22;55696;52.138;5.444;2023-07-30T03:48:04;19.00;65.80
68719;DHT22;55696;52.138;5.444;2023-07-30T03:50:31;19.20;66.10
68719;DHT22;55696;52.138;5.444;2023-07-30T03:52:59;19.20;66.10
68719;DHT22;55696;52.138;5.444;2023-07-30T03:55:26;19.50;66.20
68719;DHT22;55696;52.138;5.444;2023-07-30T03:57:52;19.20;66.10
68719;DHT22;55696;52.138;5.444;2023-07-30T04:00:19;19.20;66.20
68719;DHT22;55696;52.138;5.444;2023-07-30T04:02:46;19.20;66.20
68719;DHT22;55696;52.138;5.444;2023-07-30T04:05:13;19.10;66.20
68719;DHT22;55696;52.138;5.444;2023-07-30T04:07:40;19.30;66.30
68719;DHT22;55696;52.138;5.444;2023-07-30T04:10:07;19.10;66.20
68719;DHT22;55696;52.138;5.444;2023-07-30T04:12:35;19.40;66.20
68719;DHT22;55696;52.138;5.444;2023-07-30T04:15:02;19.40;66.10
68719;DHT22;55696;52.138;5.444;2023-07-30T04:17:29;19.40;66.20
68719;DHT22;55696;52.138;5.444;2023-07-30T04:19:56;19.80;66.60
68719;DHT22;55696;52.138;5.444;2023-07-30T04:22:23;19.40;66.40
68719;DHT22;55696;52.138;5.444;2023-07-30T04:24:50;20.00;66.70
68719;DHT22;55696;52.138;5.444;2023-07-30T04:27:16;19.40;66.40
68719;DHT22;55696;52.138;5.444;2023-07-30T04:29:43;19.40;66.60
68719;DHT22;55696;52.138;5.444;2023-07-30T04:32:10;19.30;66.60
68719;DHT22;55696;52.138;5.444;2023-07-30T04:34:38;19.30;66.70
68719;DHT22;55696;52.138;5.444;2023-07-30T04:37:05;19.40;66.80
68719;DHT22;55696;52.138;5.444;2023-07-30T04:39:35;19.40;66.90
68719;DHT22;55696;52.138;5.444;2023-07-30T04:42:03;19.50;66.90
68719;DHT22;55696;52.138;5.444;2023-07-30T04:44:30;19.50;66.90
68719;DHT22;55696;52.138;5.444;2023-07-30T04:47:03;20.20;67.30
68719;DHT22;55696;52.138;5.444;2023-07-30T04:49:30;19.60;67.10
68719;DHT22;55696;52.138;5.444;2023-07-30T04:51:57;19.60;67.10
68719;DHT22;55696;52.138;5.444;2023-07-30T04:54:24;19.60;67.10
68719;DHT22;55696;52.138;5.444;2023-07-30T04:56:51;19.60;67.10
68719;DHT22;55696;52.138;5.444;2023-07-30T04:59:18;19.80;67.20
68719;DHT22;55696;52.138;5.444;2023-07-30T05:01:45;19.70;67.10
68719;DHT22;55696;52.138;5.444;2023-07-30T05:04:11;19.90;67.00
68719;DHT22;55696;52.138;5.444;2023-07-30T05:06:38;19.90;66.80
68719;DHT22;55696;52.138;5.444;2023-07-30T05:09:05;20.70;67.10
68719;DHT22;55696;52.138;5.444;2023-07-30T05:11:32;19.80;66.50
68719;DHT22;55696;52.138;5.444;2023-07-30T05:13:59;20.00;66.50
68719;DHT22;55696;52.138;5.444;2023-07-30T05:16:26;20.10;66.40
68719;DHT22;55696;52.138;5.444;2023-07-30T05:18:53;20.10;66.30
68719;DHT22;55696;52.138;5.444;2023-07-30T05:21:19;20.20;66.30
68719;DHT22;55696;52.138;5.444;2023-07-30T05:23:46;20.10;66.30
68719;DHT22;55696;52.138;5.444;2023-07-30T05:26:13;20.30;66.40
68719;DHT22;55696;52.138;5.444;2023-07-30T05:28:40;20.30;66.30
68719;DHT22;55696;52.138;5.444;2023-07-30T05:31:07;20.40;66.20
68719;DHT22;55696;52.138;5.444;2023-07-30T05:33:33;20.60;66.20
68719;DHT22;55696;52.138;5.444;2023-07-30T05:36:00;20.50;66.00
68719;DHT22;55696;52.138;5.444;2023-07-30T05:38:27;20.60;66.00
68719;DHT22;55696;52.138;5.444;2023-07-30T05:40:54;20.90;66.00
68719;DHT22;55696;52.138;5.444;2023-07-30T05:43:21;20.40;65.80
68719;DHT22;55696;52.138;5.444;2023-07-30T05:45:48;20.60;66.00
68719;DHT22;55696;52.138;5.444;2023-07-30T05:48:15;20.40;66.10
68719;DHT22;55696;52.138;5.444;2023-07-30T05:50:41;20.50;66.20
68719;DHT22;55696;52.138;5.444;2023-07-30T05:53:08;20.50;66.20
68719;DHT22;55696;52.138;5.444;2023-07-30T05:55:35;20.50;66.10
68719;DHT22;55696;52.138;5.444;2023-07-30T05:58:02;20.50;66.00
68719;DHT22;55696;52.138;5.444;2023-07-30T06:00:29;20.60;66.00
68719;DHT22;55696;52.138;5.444;2023-07-30T06:02:56;20.60;65.90
68719;DHT22;55696;52.138;5.444;2023-07-30T06:05:23;20.80;65.80
68719;DHT22;55696;52.138;5.444;2023-07-30T06:07:50;20.80;65.40
68719;DHT22;55696;52.138;5.444;2023-07-30T06:10:17;20.80;65.20
68719;DHT22;55696;52.138;5.444;2023-07-30T06:12:44;20.90;65.20
68719;DHT22;55696;52.138;5.444;2023-07-30T06:15:11;20.90;65.00
68719;DHT22;55696;52.138;5.444;2023-07-30T06:17:37;21.40;65.10
68719;DHT22;55696;52.138;5.444;2023-07-30T06:20:05;20.90;64.80
68719;DHT22;55696;52.138;5.444;2023-07-30T06:22:32;20.90;64.70
68719;DHT22;55696;52.138;5.444;2023-07-30T06:24:59;20.80;64.50
68719;DHT22;55696;52.138;5.444;2023-07-30T06:27:26;20.90;64.70
68719;DHT22;55696;52.138;5.444;2023-07-30T06:29:52;20.70;64.60
68719;DHT22;55696;52.138;5.444;2023-07-30T06:32:19;20.70;64.80
68719;DHT22;55696;52.138;5.444;2023-07-30T06:34:46;20.70;64.60
68719;DHT22;55696;52.138;5.444;2023-07-30T06:37:13;20.90;64.60
68719;DHT22;55696;52.138;5.444;2023-07-30T06:39:40;21.20;64.60
68719;DHT22;55696;52.138;5.444;2023-07-30T06:42:07;21.10;64.20
68719;DHT22;55696;52.138;5.444;2023-07-30T06:44:35;21.20;64.00
68719;DHT22;55696;52.138;5.444;2023-07-30T06:47:02;21.20;64.00
68719;DHT22;55696;52.138;5.444;2023-07-30T06:49:29;21.20;63.90
68719;DHT22;55696;52.138;5.444;2023-07-30T06:51:56;21.20;63.90
68719;DHT22;55696;52.138;5.444;2023-07-30T06:54:22;21.20;63.80
68719;DHT22;55696;52.138;5.444;2023-07-30T06:56:49;21.20;63.80
68719;DHT22;55696;52.138;5.444;2023-07-30T06:59:16;21.20;63.80
68719;DHT22;55696;52.138;5.444;2023-07-30T07:01:43;21.20;63.70
68719;DHT22;55696;52.138;5.444;2023-07-30T07:04:10;20.90;63.60
68719;DHT22;55696;52.138;5.444;2023-07-30T07:06:37;20.90;63.80
68719;DHT22;55696;52.138;5.444;2023-07-30T07:09:03;20.80;64.00
68719;DHT22;55696;52.138;5.444;2023-07-30T07:11:30;20.90;64.10
68719;DHT22;55696;52.138;5.444;2023-07-30T07:13:57;20.90;64.20
68719;DHT22;55696;52.138;5.444;2023-07-30T07:16:24;20.90;64.10
68719;DHT22;55696;52.138;5.444;2023-07-30T07:18:51;21.00;64.00
68719;DHT22;55696;52.138;5.444;2023-07-30T07:21:18;21.10;63.90
68719;DHT22;55696;52.138;5.444;2023-07-30T07:23:46;21.10;63.70
68719;DHT22;55696;52.138;5.444;2023-07-30T07:26:13;21.10;63.60
68719;DHT22;55696;52.138;5.444;2023-07-30T07:28:40;21.10;63.70
68719;DHT22;55696;52.138;5.444;2023-07-30T07:31:08;21.00;63.50
68719;DHT22;55696;52.138;5.444;2023-07-30T07:33:35;21.30;63.30
68719;DHT22;55696;52.138;5.444;2023-07-30T07:36:07;21.30;63.00
68719;DHT22;55696;52.138;5.444;2023-07-30T07:38:35;21.30;63.00
68719;DHT22;55696;52.138;5.444;2023-07-30T07:41:02;21.40;62.60
68719;DHT22;55696;52.138;5.444;2023-07-30T07:43:28;20.70;61.80
68719;DHT22;55696;52.138;5.444;2023-07-30T07:45:55;21.60;62.00
68719;DHT22;55696;52.138;5.444;2023-07-30T07:48:22;21.60;61.60
68719;DHT22;55696;52.138;5.444;2023-07-30T07:50:50;21.70;61.50
68719;DHT22;55696;52.138;5.444;2023-07-30T07:53:16;21.70;61.30
68719;DHT22;55696;52.138;5.444;2023-07-30T07:55:43;21.70;61.20
68719;DHT22;55696;52.138;5.444;2023-07-30T07:58:10;21.50;60.90
68719;DHT22;55696;52.138;5.444;2023-07-30T08:00:37;21.80;60.80
68719;DHT22;55696;52.138;5.444;2023-07-30T08:03:04;22.00;60.80
68719;DHT22;55696;52.138;5.444;2023-07-30T08:05:30;21.80;60.70
68719;DHT22;55696;52.138;5.444;2023-07-30T08:07:57;21.80;60.50
68719;DHT22;55696;52.138;5.444;2023-07-30T08:10:24;21.70;61.50
68719;DHT22;55696;52.138;5.444;2023-07-30T08:12:51;21.80;60.80
68719;DHT22;55696;52.138;5.444;2023-07-30T08:15:18;21.80;60.30
68719;DHT22;55696;52.138;5.444;2023-07-30T08:17:45;22.10;59.70
68719;DHT22;55696;52.138;5.444;2023-07-30T08:20:11;22.30;59.60
68719;DHT22;55696;52.138;5.444;2023-07-30T08:22:38;23.00;59.50
68719;DHT22;55696;52.138;5.444;2023-07-30T08:25:06;22.40;58.70
68719;DHT22;55696;52.138;5.444;2023-07-30T08:27:32;22.40;58.30
68719;DHT22;55696;52.138;5.444;2023-07-30T08:29:59;22.30;58.50
68719;DHT22;55696;52.138;5.444;2023-07-30T08:32:26;22.60;58.80
68719;DHT22;55696;52.138;5.444;2023-07-30T08:34:53;22.20;58.50
68719;DHT22;55696;52.138;5.444;2023-07-30T08:37:20;22.30;58.70
68719;DHT22;55696;52.138;5.444;2023-07-30T08:39:47;21.90;58.90
68719;DHT22;55696;52.138;5.444;2023-07-30T08:42:16;21.90;59.50
68719;DHT22;55696;52.138;5.444;2023-07-30T08:44:42;21.60;60.00
68719;DHT22;55696;52.138;5.444;2023-07-30T08:47:12;21.80;60.10
68719;DHT22;55696;52.138;5.444;2023-07-30T08:49:39;21.70;60.10
68719;DHT22;55696;52.138;5.444;2023-07-30T08:52:08;21.80;59.90
68719;DHT22;55696;52.138;5.444;2023-07-30T08:54:37;21.90;59.50
68719;DHT22;55696;52.138;5.444;2023-07-30T08:57:06;22.00;60.00
68719;DHT22;55696;52.138;5.444;2023-07-30T08:59:39;22.10;58.30
68719;DHT22;55696;52.138;5.444;2023-07-30T09:02:12;22.10;58.20
68719;DHT22;55696;52.138;5.444;2023-07-30T09:04:40;22.40;58.30
68719;DHT22;55696;52.138;5.444;2023-07-30T09:07:09;22.60;57.60
68719;DHT22;55696;52.138;5.444;2023-07-30T09:09:38;22.80;57.00
68719;DHT22;55696;52.138;5.444;2023-07-30T09:12:13;22.80;57.10
68719;DHT22;55696;52.138;5.444;2023-07-30T09:14:40;22.80;57.20
68719;DHT22;55696;52.138;5.444;2023-07-30T09:17:19;22.90;56.80
68719;DHT22;55696;52.138;5.444;2023-07-30T09:19:46;22.90;56.50
68719;DHT22;55696;52.138;5.444;2023-07-30T09:22:29;22.90;56.40
68719;DHT22;55696;52.138;5.444;2023-07-30T09:24:57;22.90;56.10
68719;DHT22;55696;52.138;5.444;2023-07-30T09:27:25;22.90;56.00
68719;DHT22;55696;52.138;5.444;2023-07-30T09:29:54;23.10;56.20
68719;DHT22;55696;52.138;5.444;2023-07-30T09:32:29;22.90;57.10
68719;DHT22;55696;52.138;5.444;2023-07-30T09:35:10;22.70;56.00
68719;DHT22;55696;52.138;5.444;2023-07-30T09:37:39;22.70;56.30
68719;DHT22;55696;52.138;5.444;2023-07-30T09:40:08;22.40;56.10
68719;DHT22;55696;52.138;5.444;2023-07-30T09:42:38;22.60;56.40
68719;DHT22;55696;52.138;5.444;2023-07-30T09:45:08;22.70;55.90
68719;DHT22;55696;52.138;5.444;2023-07-30T09:47:38;22.70;56.00
68719;DHT22;55696;52.138;5.444;2023-07-30T09:50:05;22.80;55.60
68719;DHT22;55696;52.138;5.444;2023-07-30T09:52:32;22.90;55.10
68719;DHT22;55696;52.138;5.444;2023-07-30T09:55:00;23.00;54.90
68719;DHT22;55696;52.138;5.444;2023-07-30T09:57:30;23.60;55.10
68719;DHT22;55696;52.138;5.444;2023-07-30T09:59:57;22.90;54.60
68719;DHT22;55696;52.138;5.444;2023-07-30T10:02:28;23.00;54.70
68719;DHT22;55696;52.138;5.444;2023-07-30T10:04:59;23.40;54.40
68719;DHT22;55696;52.138;5.444;2023-07-30T10:07:28;23.10;53.60
68719;DHT22;55696;52.138;5.444;2023-07-30T10:09:58;23.10;53.20
68719;DHT22;55696;52.138;5.444;2023-07-30T10:12:29;23.30;53.10
68719;DHT22;55696;52.138;5.444;2023-07-30T10:14:58;23.30;53.10
68719;DHT22;55696;52.138;5.444;2023-07-30T10:17:24;23.60;51.40
68719;DHT22;55696;52.138;5.444;2023-07-30T10:19:51;23.60;51.00
68719;DHT22;55696;52.138;5.444;2023-07-30T10:25:00;23.70;48.90
68719;DHT22;55696;52.138;5.444;2023-07-30T10:27:39;23.80;48.90
68719;DHT22;55696;52.138;5.444;2023-07-30T10:30:12;23.90;48.20
68719;DHT22;55696;52.138;5.444;2023-07-30T10:35:07;23.70;47.30
68719;DHT22;55696;52.138;5.444;2023-07-30T10:37:34;23.50;47.40
68719;DHT22;55696;52.138;5.444;2023-07-30T10:40:01;23.40;47.80
68719;DHT22;55696;52.138;5.444;2023-07-30T10:42:41;23.30;48.30
68719;DHT22;55696;52.138;5.444;2023-07-30T10:45:08;23.30;48.60
68719;DHT22;55696;52.138;5.444;2023-07-30T10:47:35;23.60;49.10
68719;DHT22;55696;52.138;5.444;2023-07-30T10:50:03;23.80;48.30
68719;DHT22;55696;52.138;5.444;2023-07-30T10:52:30;23.80;48.00
68719;DHT22;55696;52.138;5.444;2023-07-30T10:55:01;23.70;47.70
68719;DHT22;55696;52.138;5.444;2023-07-30T10:57:31;23.70;48.20
68719;DHT22;55696;52.138;5.444;2023-07-30T11:00:02;23.90;47.90
68719;DHT22;55696;52.138;5.444;2023-07-30T11:02:29;24.20;47.30
68719;DHT22;55696;52.138;5.444;2023-07-30T11:04:56;24.30;45.60
68719;DHT22;55696;52.138;5.444;2023-07-30T11:07:23;24.50;45.30
68719;DHT22;55696;52.138;5.444;2023-07-30T11:10:00;24.70;44.90
68719;DHT22;55696;52.138;5.444;2023-07-30T11:12:30;24.90;44.50
68719;DHT22;55696;52.138;5.444;2023-07-30T11:15:01;25.10;45.00
68719;DHT22;55696;52.138;5.444;2023-07-30T11:17:28;25.10;43.60
68719;DHT22;55696;52.138;5.444;2023-07-30T11:19:55;25.00;43.40
68719;DHT22;55696;52.138;5.444;2023-07-30T11:22:30;24.90;43.30
68719;DHT22;55696;52.138;5.444;2023-07-30T11:25:00;24.60;43.50
68719;DHT22;55696;52.138;5.444;2023-07-30T11:27:28;24.80;43.80
68719;DHT22;55696;52.138;5.444;2023-07-30T11:29:58;24.70;43.90
68719;DHT22;55696;52.138;5.444;2023-07-30T11:32:27;24.50;43.60
68719;DHT22;55696;52.138;5.444;2023-07-30T11:34:56;24.70;43.50
68719;DHT22;55696;52.138;5.444;2023-07-30T11:37:23;24.60;43.70
68719;DHT22;55696;52.138;5.444;2023-07-30T11:39:50;24.70;44.10
68719;DHT22;55696;52.138;5.444;2023-07-30T11:42:19;24.70;43.80
68719;DHT22;55696;52.138;5.444;2023-07-30T11:44:46;24.60;43.60
68719;DHT22;55696;52.138;5.444;2023-07-30T11:47:21;24.80;43.40
68719;DHT22;55696;52.138;5.444;2023-07-30T11:49:58;24.80;43.20
68719;DHT22;55696;52.138;5.444;2023-07-30T11:52:24;25.00;43.20
68719;DHT22;55696;52.138;5.444;2023-07-30T11:55:04;25.10;42.90
68719;DHT22;55696;52.138;5.444;2023-07-30T11:57:34;25.20;43.20
68719;DHT22;55696;52.138;5.444;2023-07-30T12:00:02;25.20;42.70
68719;DHT22;55696;52.138;5.444;2023-07-30T12:02:38;25.20;42.50
68719;DHT22;55696;52.138;5.444;2023-07-30T12:05:05;25.20;42.80
68719;DHT22;55696;52.138;5.444;2023-07-30T12:07:41;25.20;43.30
68719;DHT22;55696;52.138;5.444;2023-07-30T12:10:10;25.20;43.40
68719;DHT22;55696;52.138;5.444;2023-07-30T12:12:44;25.50;43.30
68719;DHT22;55696;52.138;5.444;2023-07-30T12:15:12;25.30;43.00
68719;DHT22;55696;52.138;5.444;2023-07-30T12:17:39;25.20;43.10
68719;DHT22;55696;52.138;5.444;2023-07-30T12:20:06;24.90;43.40
68719;DHT22;55696;52.138;5.444;2023-07-30T12:22:34;24.50;43.70
68719;DHT22;55696;52.138;5.444;2023-07-30T12:25:05;24.60;44.40
68719;DHT22;55696;52.138;5.444;2023-07-30T12:27:32;25.10;44.20
68719;DHT22;55696;52.138;5.444;2023-07-30T12:29:59;25.90;44.10
68719;DHT22;55696;52.138;5.444;2023-07-30T12:32:26;26.00;43.10
68719;DHT22;55696;52.138;5.444;2023-07-30T12:34:55;26.30;42.30
68719;DHT22;55696;52.138;5.444;2023-07-30T12:37:22;26.70;42.10
68719;DHT22;55696;52.138;5.444;2023-07-30T12:39:49;27.00;40.80
68719;DHT22;55696;52.138;5.444;2023-07-30T12:42:15;27.10;39.50
68719;DHT22;55696;52.138;5.444;2023-07-30T12:44:42;26.80;39.50
68719;DHT22;55696;52.138;5.444;2023-07-30T12:47:09;26.30;39.80
68719;DHT22;55696;52.138;5.444;2023-07-30T12:49:36;26.00;40.40
68719;DHT22;55696;52.138;5.444;2023-07-30T12:52:03;26.10;40.90
68719;DHT22;55696;52.138;5.444;2023-07-30T12:54:30;26.10;40.60
68719;DHT22;55696;52.138;5.444;2023-07-30T12:56:56;25.90;40.70
68719;DHT22;55696;52.138;5.444;2023-07-30T12:59:23;25.50;40.30
68719;DHT22;55696;52.138;5.444;2023-07-30T13:01:50;25.20;41.00
68719;DHT22;55696;52.138;5.444;2023-07-30T13:04:17;25.00;41.90
68719;DHT22;55696;52.138;5.444;2023-07-30T13:06:44;25.10;42.60
68719;DHT22;55696;52.138;5.444;2023-07-30T13:09:11;25.00;42.80
68719;DHT22;55696;52.138;5.444;2023-07-30T13:11:38;24.90;43.00
68719;DHT22;55696;52.138;5.444;2023-07-30T13:14:05;25.20;42.90
68719;DHT22;55696;52.138;5.444;2023-07-30T13:16:32;25.40;42.00
68719;DHT22;55696;52.138;5.444;2023-07-30T13:18:59;25.80;42.10
68719;DHT22;55696;52.138;5.444;2023-07-30T13:21:26;26.20;42.00
68719;DHT22;55696;52.138;5.444;2023-07-30T13:23:53;26.40;40.20
68719;DHT22;55696;52.138;5.444;2023-07-30T13:26:19;26.20;39.40
68719;DHT22;55696;52.138;5.444;2023-07-30T13:28:47;26.20;39.60
68719;DHT22;55696;52.138;5.444;2023-07-30T13:31:15;26.20;39.40
68719;DHT22;55696;52.138;5.444;2023-07-30T13:33:42;26.10;40.00
68719;DHT22;55696;52.138;5.444;2023-07-30T13:36:09;25.80;39.70
68719;DHT22;55696;52.138;5.444;2023-07-30T13:38:35;25.50;39.90
68719;DHT22;55696;52.138;5.444;2023-07-30T13:41:02;25.40;40.30
68719;DHT22;55696;52.138;5.444;2023-07-30T13:43:29;25.20;40.80
68719;DHT22;55696;52.138;5.444;2023-07-30T13:45:57;25.30;40.30
68719;DHT22;55696;52.138;5.444;2023-07-30T13:48:25;25.60;40.20
68719;DHT22;55696;52.138;5.444;2023-07-30T13:50:52;26.10;39.40
68719;DHT22;55696;52.138;5.444;2023-07-30T13:53:19;26.40;38.10
68719;DHT22;55696;52.138;5.444;2023-07-30T13:55:46;26.30;37.70
68719;DHT22;55696;52.138;5.444;2023-07-30T13:58:13;26.10;37.90
68719;DHT22;55696;52.138;5.444;2023-07-30T14:00:41;26.30;37.90
68719;DHT22;55696;52.138;5.444;2023-07-30T14:03:09;26.60;37.30
68719;DHT22;55696;52.138;5.444;2023-07-30T14:05:37;26.80;36.80
68719;DHT22;55696;52.138;5.444;2023-07-30T14:08:04;27.10;37.10
68719;DHT22;55696;52.138;5.444;2023-07-30T14:10:31;27.50;37.10
68719;DHT22;55696;52.138;5.444;2023-07-30T14:12:57;27.10;36.90
68719;DHT22;55696;52.138;5.444;2023-07-30T14:15:24;27.20;36.80
68719;DHT22;55696;52.138;5.444;2023-07-30T14:17:51;27.40;36.90
68719;DHT22;55696;52.138;5.444;2023-07-30T14:20:19;26.90;36.00
68719;DHT22;55696;52.138;5.444;2023-07-30T14:22:46;26.40;36.80
68719;DHT22;55696;52.138;5.444;2023-07-30T14:25:12;26.10;38.10
68719;DHT22;55696;52.138;5.444;2023-07-30T14:27:39;25.70;39.00
68719;DHT22;55696;52.138;5.444;2023-07-30T14:30:07;25.50;39.80
68719;DHT22;55696;52.138;5.444;2023-07-30T14:32:34;25.30;40.50
68719;DHT22;55696;52.138;5.444;2023-07-30T14:35:01;25.40;40.50
68719;DHT22;55696;52.138;5.444;2023-07-30T14:37:28;25.70;39.60
68719;DHT22;55696;52.138;5.444;2023-07-30T14:39:55;25.70;39.40
68719;DHT22;55696;52.138;5.444;2023-07-30T14:42:21;25.60;39.40
68719;DHT22;55696;52.138;5.444;2023-07-30T14:44:48;25.50;39.80
68719;DHT22;55696;52.138;5.444;2023-07-30T14:47:15;25.30;39.80
68719;DHT22;55696;52.138;5.444;2023-07-30T14:49:42;25.20;40.40
68719;DHT22;55696;52.138;5.444;2023-07-30T14:52:09;24.90;40.70
68719;DHT22;55696;52.138;5.444;2023-07-30T14:54:36;24.80;41.40
68719;DHT22;55696;52.138;5.444;2023-07-30T14:57:04;25.20;41.70
68719;DHT22;55696;52.138;5.444;2023-07-30T14:59:32;25.70;41.30
68719;DHT22;55696;52.138;5.444;2023-07-30T15:01:59;26.40;40.20
68719;DHT22;55696;52.138;5.444;2023-07-30T15:04:26;27.00;39.20
68719;DHT22;55696;52.138;5.444;2023-07-30T15:06:52;27.20;38.70
68719;DHT22;55696;52.138;5.444;2023-07-30T15:09:19;27.20;38.20
68719;DHT22;55696;52.138;5.444;2023-07-30T15:11:46;26.50;38.60
68719;DHT22;55696;52.138;5.444;2023-07-30T15:14:13;26.40;39.40
68719;DHT22;55696;52.138;5.444;2023-07-30T15:16:40;25.90;39.30
68719;DHT22;55696;52.138;5.444;2023-07-30T15:19:07;25.60;40.00
68719;DHT22;55696;52.138;5.444;2023-07-30T15:21:34;25.50;40.90
68719;DHT22;55696;52.138;5.444;2023-07-30T15:24:03;25.30;41.00
68719;DHT22;55696;52.138;5.444;2023-07-30T15:26:30;25.10;41.20
68719;DHT22;55696;52.138;5.444;2023-07-30T15:28:57;25.00;41.30
68719;DHT22;55696;52.138;5.444;2023-07-30T15:31:23;25.00;41.60
68719;DHT22;55696;52.138;5.444;2023-07-30T15:33:52;25.00;41.60
68719;DHT22;55696;52.138;5.444;2023-07-30T15:36:19;25.10;41.40
68719;DHT22;55696;52.138;5.444;2023-07-30T15:38:46;25.00;41.10